Time;durP1;ratioP1;P1;durP2;ratioP2;P2;SDS_P1;SDS_P2;PMS_P1;PMS_P2;Temp;Humidity;BMP_temperature;BMP_pressure;BME280_temperature;BME280_humidity;BME280_pressure;Samples;Min_cycle;Max_cycle;Signal;HPM_P1;HPM_P2
2021/06/03 00:04:26;;;;;;;5.95;3.40;;;;;;;;;;10148339;28;20065;-71
2021/06/03 00:09:22;;;;;;;5.63;3.70;;;;;;;;;;10144471;28;20046;-71
2021/06/03 00:14:18;;;;;;;6.28;3.75;;;;;;;;;;10142965;28;20133;-71
2021/06/03 00:19:15;;;;;;;5.78;3.90;;;;;;;;;;10144691;28;20047;-72
2021/06/03 00:24:11;;;;;;;6.60;3.30;;;;;;;;;;10144793;28;20486;-72
2021/06/03 00:29:10;;;;;;;7.30;3.85;;;;;;;;;;10149027;28;20125;-71
2021/06/03 00:34:07;;;;;;;8.90;4.35;;;;;;;;;;10148745;28;20088;-70
2021/06/03 00:39:04;;;;;;;6.68;4.07;;;;;;;;;;10144268;28;20469;-71
2021/06/03 00:44:01;;;;;;;6.60;3.60;;;;;;;;;;10142901;28;20077;-71
2021/06/03 00:48:58;;;;;;;5.25;3.72;;;;;;;;;;10138397;28;20146;-71
2021/06/03 00:53:54;;;;;;;5.20;3.70;;;;;;;;;;10131864;28;20066;-71
2021/06/03 00:58:50;;;;;;;7.30;4.05;;;;;;;;;;10145122;28;20133;-73
2021/06/03 01:03:47;;;;;;;5.40;3.95;;;;;;;;;;10141290;28;20133;-71
2021/06/03 01:08:49;;;;;;;5.40;3.38;;;;;;;;;;10150417;28;20137;-73
2021/06/03 01:13:48;;;;;;;5.85;4.00;;;;;;;;;;10150233;28;20137;-73
2021/06/03 01:18:44;;;;;;;7.43;3.70;;;;;;;;;;10145454;28;20061;-72
2021/06/03 01:23:44;;;;;;;6.45;3.65;;;;;;;;;;10146799;28;20042;-73
2021/06/03 01:28:40;;;;;;;5.28;3.70;;;;;;;;;;10135756;28;20142;-72
2021/06/03 01:33:41;;;;;;;5.35;3.90;;;;;;;;;;10145420;28;20189;-71
2021/06/03 01:38:39;;;;;;;7.60;3.50;;;;;;;;;;10146008;28;20041;-71
2021/06/03 01:43:40;;;;;;;6.63;4.10;;;;;;;;;;10142298;28;20058;-71
2021/06/03 01:48:37;;;;;;;5.32;4.00;;;;;;;;;;10137822;28;20086;-71
2021/06/03 01:53:34;;;;;;;5.95;3.88;;;;;;;;;;10152446;28;20046;-73
2021/06/03 01:58:30;;;;;;;7.60;4.18;;;;;;;;;;10155264;28;20112;-74
2021/06/03 02:03:27;;;;;;;6.20;3.65;;;;;;;;;;10127117;28;20049;-73
2021/06/03 02:08:23;;;;;;;6.05;3.92;;;;;;;;;;10148729;28;20515;-72
2021/06/03 02:13:29;;;;;;;6.05;3.75;;;;;;;;;;10157868;28;20503;-74
2021/06/03 02:18:38;;;;;;;5.05;3.55;;;;;;;;;;10154710;28;20454;-74
2021/06/03 02:23:35;;;;;;;5.70;3.75;;;;;;;;;;10146684;28;20128;-73
2021/06/03 02:28:33;;;;;;;6.45;4.35;;;;;;;;;;10153753;28;20043;-72
2021/06/03 02:33:31;;;;;;;8.05;4.43;;;;;;;;;;10149010;28;20074;-73
2021/06/03 02:38:28;;;;;;;5.30;3.80;;;;;;;;;;10150370;28;20038;-74
2021/06/03 02:43:24;;;;;;;5.03;3.00;;;;;;;;;;10149557;28;20121;-71
2021/06/03 02:48:21;;;;;;;6.05;3.78;;;;;;;;;;10148182;28;20037;-71
2021/06/03 02:53:17;;;;;;;6.20;4.47;;;;;;;;;;10161462;28;20137;-72
2021/06/03 02:58:14;;;;;;;5.75;3.88;;;;;;;;;;10155550;28;20098;-72
2021/06/03 03:03:10;;;;;;;8.63;4.43;;;;;;;;;;10154028;28;20461;-73
2021/06/03 03:08:07;;;;;;;7.80;4.05;;;;;;;;;;10136726;28;20475;-72
2021/06/03 03:13:04;;;;;;;6.57;3.90;;;;;;;;;;10157615;28;20150;-72
2021/06/03 03:18:01;;;;;;;9.27;4.30;;;;;;;;;;10159592;28;20572;-72
2021/06/03 03:22:57;;;;;;;6.15;3.95;;;;;;;;;;10164688;28;20046;-71
2021/06/03 03:27:54;;;;;;;7.43;4.03;;;;;;;;;;10148199;28;20084;-71
2021/06/03 03:32:52;;;;;;;7.00;3.83;;;;;;;;;;10138540;28;20116;-74
2021/06/03 03:37:49;;;;;;;10.10;4.78;;;;;;;;;;10143223;28;20108;-72
2021/06/03 03:42:46;;;;;;;8.52;4.20;;;;;;;;;;10151978;28;20041;-72
2021/06/03 03:47:43;;;;;;;8.10;4.00;;;;;;;;;;10151954;28;20053;-74
2021/06/03 03:52:40;;;;;;;6.65;4.32;;;;;;;;;;10136765;28;20073;-72
2021/06/03 03:57:36;;;;;;;5.78;4.20;;;;;;;;;;10135831;28;20041;-73
2021/06/03 04:02:33;;;;;;;6.35;3.90;;;;;;;;;;10137179;28;20081;-73
2021/06/03 04:07:29;;;;;;;9.05;4.32;;;;;;;;;;10134589;28;20096;-73
2021/06/03 04:12:25;;;;;;;7.03;4.30;;;;;;;;;;10144380;28;20735;-73
2021/06/03 04:17:22;;;;;;;6.30;4.22;;;;;;;;;;10133652;28;20505;-73
2021/06/03 04:22:35;;;;;;;5.97;4.18;;;;;;;;;;10138040;28;20054;-73
2021/06/03 04:27:33;;;;;;;8.57;4.88;;;;;;;;;;10131129;28;20077;-74
2021/06/03 04:32:30;;;;;;;7.43;4.30;;;;;;;;;;10138585;28;20061;-71
2021/06/03 04:37:27;;;;;;;6.88;4.30;;;;;;;;;;10140987;28;20054;-68
2021/06/03 04:42:25;;;;;;;6.53;4.53;;;;;;;;;;10142143;28;20112;-68
2021/06/03 04:47:21;;;;;;;7.35;4.63;;;;;;;;;;10127844;28;20441;-67
2021/06/03 04:52:31;;;;;;;8.32;4.50;;;;;;;;;;10127158;28;20073;-68
2021/06/03 04:57:27;;;;;;;8.30;4.47;;;;;;;;;;10130280;28;20508;-67
2021/06/03 05:02:24;;;;;;;7.75;5.13;;;;;;;;;;10133878;28;20129;-67
2021/06/03 05:07:21;;;;;;;6.50;4.30;;;;;;;;;;10129735;28;20121;-67
2021/06/03 05:12:17;;;;;;;6.85;4.65;;;;;;;;;;10130718;28;20085;-67
2021/06/03 05:17:13;;;;;;;12.02;4.88;;;;;;;;;;10128267;28;20059;-68
2021/06/03 05:22:10;;;;;;;6.90;4.38;;;;;;;;;;10130364;28;20070;-67
2021/06/03 05:27:07;;;;;;;7.45;3.85;;;;;;;;;;10137947;28;20054;-68
2021/06/03 05:32:03;;;;;;;8.23;4.20;;;;;;;;;;10138383;28;20054;-68
2021/06/03 05:37:00;;;;;;;9.00;4.40;;;;;;;;;;10141155;28;20501;-67
2021/06/03 05:41:56;;;;;;;7.60;4.40;;;;;;;;;;10127813;28;20050;-67
2021/06/03 05:46:53;;;;;;;7.03;4.47;;;;;;;;;;10137653;28;20054;-67
2021/06/03 05:51:50;;;;;;;6.93;4.50;;;;;;;;;;10138774;28;20054;-66
2021/06/03 05:56:46;;;;;;;8.90;4.68;;;;;;;;;;10143246;28;20125;-67
2021/06/03 06:01:43;;;;;;;8.30;4.80;;;;;;;;;;10137715;28;20046;-69
2021/06/03 06:06:39;;;;;;;8.40;4.47;;;;;;;;;;10143573;28;20047;-67
2021/06/03 06:11:37;;;;;;;9.48;4.60;;;;;;;;;;10144170;28;20070;-67
2021/06/03 06:16:35;;;;;;;9.32;5.00;;;;;;;;;;10153833;28;20113;-66
2021/06/03 06:21:32;;;;;;;7.57;4.47;;;;;;;;;;10155087;28;20116;-67
2021/06/03 06:26:29;;;;;;;7.40;4.75;;;;;;;;;;10147194;28;20508;-66
2021/06/03 06:31:25;;;;;;;7.28;4.32;;;;;;;;;;10142640;28;20564;-67
2021/06/03 06:36:24;;;;;;;8.15;4.50;;;;;;;;;;10139003;28;20052;-66
2021/06/03 06:41:20;;;;;;;6.95;4.35;;;;;;;;;;10141376;28;20141;-68
2021/06/03 06:46:16;;;;;;;8.02;4.57;;;;;;;;;;10147286;28;20096;-67
2021/06/03 06:51:13;;;;;;;7.10;4.50;;;;;;;;;;10139983;28;20054;-67
2021/06/03 06:56:09;;;;;;;6.72;4.05;;;;;;;;;;10144126;28;20079;-68
2021/06/03 07:01:07;;;;;;;7.45;4.63;;;;;;;;;;10138440;28;20084;-67
2021/06/03 07:06:03;;;;;;;7.75;4.50;;;;;;;;;;10155752;28;20587;-68
2021/06/03 07:11:00;;;;;;;7.65;4.95;;;;;;;;;;10151252;28;20088;-68
2021/06/03 07:15:57;;;;;;;9.43;4.55;;;;;;;;;;10153830;28;20057;-68
2021/06/03 07:20:53;;;;;;;8.30;5.30;;;;;;;;;;10154936;28;20480;-67
2021/06/03 07:25:50;;;;;;;8.48;4.53;;;;;;;;;;10144749;28;20572;-67
2021/06/03 07:30:46;;;;;;;6.63;4.57;;;;;;;;;;10148059;28;20074;-68
2021/06/03 07:35:43;;;;;;;8.57;4.25;;;;;;;;;;10165512;28;20045;-67
2021/06/03 07:40:40;;;;;;;8.32;4.18;;;;;;;;;;10155596;28;20500;-68
2021/06/03 07:45:36;;;;;;;9.32;4.47;;;;;;;;;;10145768;28;20511;-67
2021/06/03 07:50:34;;;;;;;7.78;4.22;;;;;;;;;;10140544;28;20122;-67
2021/06/03 07:55:31;;;;;;;10.20;4.63;;;;;;;;;;10148453;28;20057;-68
2021/06/03 08:00:28;;;;;;;11.20;5.00;;;;;;;;;;10152758;28;20470;-67
2021/06/03 08:05:25;;;;;;;7.55;4.75;;;;;;;;;;10143083;28;20069;-66
2021/06/03 08:10:27;;;;;;;8.35;4.40;;;;;;;;;;10157389;28;20505;-66
2021/06/03 08:15:24;;;;;;;10.45;4.25;;;;;;;;;;10150815;28;20081;-67
2021/06/03 08:20:22;;;;;;;6.57;4.50;;;;;;;;;;10138915;28;20046;-68
2021/06/03 08:25:19;;;;;;;8.32;3.78;;;;;;;;;;10131241;28;20178;-66
2021/06/03 08:30:16;;;;;;;7.28;3.72;;;;;;;;;;10141630;28;20616;-67
2021/06/03 08:35:15;;;;;;;8.20;4.65;;;;;;;;;;10145508;28;20564;-67
2021/06/03 08:40:12;;;;;;;8.10;4.22;;;;;;;;;;10143911;28;20627;-68
2021/06/03 08:45:09;;;;;;;8.95;4.03;;;;;;;;;;10142403;28;20129;-67
2021/06/03 08:50:06;;;;;;;8.35;3.92;;;;;;;;;;10143287;28;20137;-68
2021/06/03 08:55:04;;;;;;;6.70;3.92;;;;;;;;;;10137191;28;20078;-68
2021/06/03 09:00:01;;;;;;;7.32;4.43;;;;;;;;;;10151873;28;20046;-67
2021/06/03 09:04:58;;;;;;;8.40;3.88;;;;;;;;;;10127445;28;20094;-68
2021/06/03 09:09:54;;;;;;;11.93;4.88;;;;;;;;;;10128893;28;20129;-66
2021/06/03 09:15:09;;;;;;;7.35;4.13;;;;;;;;;;10136838;28;20047;-66
2021/06/03 09:20:06;;;;;;;13.52;4.47;;;;;;;;;;10128971;28;20129;-68
2021/06/03 09:25:21;;;;;;;5.72;3.67;;;;;;;;;;10132100;28;20054;-66
2021/06/03 09:30:18;;;;;;;8.48;4.15;;;;;;;;;;10128640;28;20397;-67
2021/06/03 09:35:14;;;;;;;6.47;3.50;;;;;;;;;;10155152;28;20093;-66
2021/06/03 09:40:23;;;;;;;7.43;3.58;;;;;;;;;;10154344;28;20473;-67
2021/06/03 09:45:21;;;;;;;6.75;3.38;;;;;;;;;;10159701;28;20124;-67
2021/06/03 09:50:22;;;;;;;5.93;3.65;;;;;;;;;;10150044;28;20077;-66
2021/06/03 09:55:23;;;;;;;7.25;4.10;;;;;;;;;;10149350;28;20142;-65
2021/06/03 10:00:22;;;;;;;8.38;4.05;;;;;;;;;;10143858;28;20728;-67
2021/06/03 10:05:20;;;;;;;8.65;3.97;;;;;;;;;;10149282;28;20677;-67
2021/06/03 10:10:16;;;;;;;6.40;3.65;;;;;;;;;;10139920;28;20091;-66
2021/06/03 10:15:32;;;;;;;5.60;3.90;;;;;;;;;;10143029;28;20063;-67
2021/06/03 10:20:33;;;;;;;6.32;3.90;;;;;;;;;;10146717;28;20577;-67
2021/06/03 10:25:31;;;;;;;6.57;4.15;;;;;;;;;;10149350;28;20430;-69
2021/06/03 10:30:29;;;;;;;7.90;4.47;;;;;;;;;;10144380;28;20046;-67
2021/06/03 10:35:29;;;;;;;8.02;3.60;;;;;;;;;;10159109;28;20054;-67
2021/06/03 10:40:27;;;;;;;9.80;3.80;;;;;;;;;;10140103;28;20043;-67
2021/06/03 10:45:25;;;;;;;6.80;3.97;;;;;;;;;;10139766;28;20086;-68
2021/06/03 10:50:30;;;;;;;6.60;4.30;;;;;;;;;;10133762;28;20050;-68
2021/06/03 10:55:29;;;;;;;7.25;3.95;;;;;;;;;;10144871;28;20050;-67
2021/06/03 11:00:28;;;;;;;7.93;3.55;;;;;;;;;;10143057;28;20539;-68
2021/06/03 11:05:26;;;;;;;6.97;3.88;;;;;;;;;;10138148;28;20653;-66
2021/06/03 11:10:27;;;;;;;7.88;4.03;;;;;;;;;;10148657;28;20046;-67
2021/06/03 11:15:24;;;;;;;7.78;3.75;;;;;;;;;;10147601;28;20507;-68
2021/06/03 11:20:37;;;;;;;6.25;3.15;;;;;;;;;;10149390;28;20588;-67
2021/06/03 11:25:37;;;;;;;9.07;3.05;;;;;;;;;;10149124;28;20497;-67
2021/06/03 11:30:33;;;;;;;8.38;3.63;;;;;;;;;;10154845;28;20042;-67
2021/06/03 11:35:30;;;;;;;9.05;3.53;;;;;;;;;;10151458;28;20058;-66
2021/06/03 11:40:26;;;;;;;10.57;3.55;;;;;;;;;;10144358;28;20112;-67
2021/06/03 11:45:25;;;;;;;7.57;3.67;;;;;;;;;;10143930;28;20386;-69
2021/06/03 11:50:22;;;;;;;8.80;3.75;;;;;;;;;;10141647;28;20134;-68
2021/06/03 11:55:28;;;;;;;5.90;3.53;;;;;;;;;;10132628;28;20077;-67
2021/06/03 12:00:36;;;;;;;7.18;3.65;;;;;;;;;;10137913;28;20099;-68
2021/06/03 12:05:43;;;;;;;8.20;3.90;;;;;;;;;;10151470;28;20097;-67
2021/06/03 12:10:42;;;;;;;6.43;3.88;;;;;;;;;;10139020;28;20472;-69
2021/06/03 12:15:41;;;;;;;7.43;3.95;;;;;;;;;;10137781;28;20042;-67
2021/06/03 12:20:37;;;;;;;9.38;4.13;;;;;;;;;;10133703;28;20157;-68
2021/06/03 12:25:38;;;;;;;6.75;3.58;;;;;;;;;;10142367;28;20134;-66
2021/06/03 12:30:36;;;;;;;8.10;3.83;;;;;;;;;;10142190;28;20085;-65
2021/06/03 12:35:49;;;;;;;5.93;3.47;;;;;;;;;;10142829;28;20464;-68
2021/06/03 12:40:45;;;;;;;7.90;3.88;;;;;;;;;;10143012;28;20150;-65
2021/06/03 12:45:42;;;;;;;9.10;3.67;;;;;;;;;;10155187;28;20141;-68
2021/06/03 12:50:40;;;;;;;12.70;3.90;;;;;;;;;;10132910;28;20089;-66
2021/06/03 12:55:37;;;;;;;5.85;3.30;;;;;;;;;;10158256;28;20066;-65
2021/06/03 13:00:34;;;;;;;6.70;3.78;;;;;;;;;;10132698;28;20125;-67
2021/06/03 13:05:30;;;;;;;6.35;3.65;;;;;;;;;;10155944;28;20133;-65
2021/06/03 13:10:27;;;;;;;6.53;3.90;;;;;;;;;;10150374;28;20470;-67
2021/06/03 13:15:23;;;;;;;7.43;3.70;;;;;;;;;;10147802;28;20555;-67
2021/06/03 13:20:25;;;;;;;5.85;3.72;;;;;;;;;;10132375;28;20042;-71
2021/06/03 13:25:22;;;;;;;7.55;4.05;;;;;;;;;;10140358;28;20062;-68
2021/06/03 13:30:23;;;;;;;5.65;3.00;;;;;;;;;;10133097;28;20439;-69
2021/06/03 13:35:21;;;;;;;6.50;3.25;;;;;;;;;;10151268;28;20511;-68
2021/06/03 13:40:35;;;;;;;6.57;3.42;;;;;;;;;;10147259;28;20043;-68
2021/06/03 13:45:39;;;;;;;8.02;3.80;;;;;;;;;;10130057;28;20085;-67
2021/06/03 13:50:37;;;;;;;7.90;3.53;;;;;;;;;;10133557;28;20648;-68
2021/06/03 13:55:44;;;;;;;6.07;3.67;;;;;;;;;;10126577;28;20077;-66
2021/06/03 14:01:07;;;;;;;9.30;3.60;;;;;;;;;;10130911;28;20043;-69
2021/06/03 14:06:04;;;;;;;6.53;3.08;;;;;;;;;;10145101;28;20428;-66
2021/06/03 14:11:05;;;;;;;6.72;3.47;;;;;;;;;;10138553;28;20047;-67
2021/06/03 14:16:01;;;;;;;8.48;3.55;;;;;;;;;;10143417;28;20051;-67
2021/06/03 14:21:05;;;;;;;7.55;3.80;;;;;;;;;;10158317;28;20058;-70
2021/06/03 14:26:11;;;;;;;8.80;3.55;;;;;;;;;;10149507;28;20642;-68
2021/06/03 14:31:07;;;;;;;7.60;4.40;;;;;;;;;;10162986;28;20580;-67
2021/06/03 14:36:04;;;;;;;9.52;4.85;;;;;;;;;;10157386;28;20533;-67
2021/06/03 14:41:00;;;;;;;6.70;3.60;;;;;;;;;;10141322;28;20087;-68
2021/06/03 14:46:07;;;;;;;5.13;3.17;;;;;;;;;;10160135;28;20137;-69
2021/06/03 14:51:05;;;;;;;8.60;4.50;;;;;;;;;;10160418;28;20523;-66
2021/06/03 14:56:02;;;;;;;6.65;4.28;;;;;;;;;;10158462;28;20098;-67
2021/06/03 15:01:00;;;;;;;8.52;5.22;;;;;;;;;;10152891;28;20101;-67
2021/06/03 15:05:56;;;;;;;8.65;5.88;;;;;;;;;;10153072;28;20049;-68
2021/06/03 15:10:54;;;;;;;8.98;6.28;;;;;;;;;;10151212;28;20132;-67
2021/06/03 15:15:51;;;;;;;8.18;5.78;;;;;;;;;;10148265;28;20074;-67
2021/06/03 15:20:49;;;;;;;8.32;5.75;;;;;;;;;;10154142;28;20133;-69
2021/06/03 15:25:46;;;;;;;7.97;4.47;;;;;;;;;;10155123;28;20134;-67
2021/06/03 15:30:43;;;;;;;6.25;3.78;;;;;;;;;;10139207;28;20233;-69
2021/06/03 15:35:42;;;;;;;6.85;3.58;;;;;;;;;;10151841;28;20109;-69
2021/06/03 15:40:40;;;;;;;7.35;3.80;;;;;;;;;;10165482;28;20093;-69
2021/06/03 15:45:36;;;;;;;7.60;3.95;;;;;;;;;;10149216;28;20122;-67
2021/06/03 15:50:33;;;;;;;6.40;3.40;;;;;;;;;;10136445;28;20129;-67
2021/06/03 15:55:30;;;;;;;10.05;4.15;;;;;;;;;;10145704;28;20038;-72
2021/06/03 16:00:29;;;;;;;9.00;4.45;;;;;;;;;;10131107;28;20069;-69
2021/06/03 16:05:25;;;;;;;5.97;4.38;;;;;;;;;;10133550;28;20074;-69
2021/06/03 16:10:23;;;;;;;8.43;3.90;;;;;;;;;;10131487;28;20104;-67
2021/06/03 16:15:20;;;;;;;8.57;3.85;;;;;;;;;;10145919;28;20072;-67
2021/06/03 16:20:17;;;;;;;7.82;4.45;;;;;;;;;;10138964;28;20085;-67
2021/06/03 16:25:14;;;;;;;5.20;2.85;;;;;;;;;;10139090;28;20121;-67
2021/06/03 16:30:14;;;;;;;4.78;2.72;;;;;;;;;;10128339;28;20136;-68
2021/06/03 16:35:11;;;;;;;8.43;4.05;;;;;;;;;;10127054;28;20069;-66
2021/06/03 16:40:09;;;;;;;9.35;4.22;;;;;;;;;;10142052;28;20050;-68
2021/06/03 16:45:08;;;;;;;5.72;3.45;;;;;;;;;;10133615;28;20452;-68
2021/06/03 16:50:04;;;;;;;6.40;3.90;;;;;;;;;;10131593;28;20095;-68
2021/06/03 16:55:01;;;;;;;7.65;3.45;;;;;;;;;;10144523;28;20560;-67
2021/06/03 16:59:57;;;;;;;5.65;3.45;;;;;;;;;;10145052;28;20059;-67
2021/06/03 17:04:54;;;;;;;7.38;4.07;;;;;;;;;;10159716;28;20129;-67
2021/06/03 17:09:51;;;;;;;12.38;3.92;;;;;;;;;;10156475;28;20081;-67
2021/06/03 17:14:47;;;;;;;8.35;4.15;;;;;;;;;;10151689;28;20084;-67
2021/06/03 17:19:44;;;;;;;7.28;3.45;;;;;;;;;;10162973;28;20062;-67
2021/06/03 17:24:40;;;;;;;6.53;3.35;;;;;;;;;;10156355;28;20412;-67
2021/06/03 17:29:37;;;;;;;10.73;3.88;;;;;;;;;;10137073;28;20497;-67
2021/06/03 17:34:33;;;;;;;5.78;3.17;;;;;;;;;;10143260;28;20077;-67
2021/06/03 17:39:29;;;;;;;8.52;4.20;;;;;;;;;;10157361;28;20033;-67
2021/06/03 17:44:26;;;;;;;5.97;3.28;;;;;;;;;;10150880;28;20467;-66
2021/06/03 17:49:22;;;;;;;6.07;3.97;;;;;;;;;;10156996;28;20092;-68
2021/06/03 17:54:19;;;;;;;7.80;4.38;;;;;;;;;;10171349;28;20068;-67
2021/06/03 17:59:15;;;;;;;7.22;3.88;;;;;;;;;;10155933;28;20049;-68
2021/06/03 18:04:12;;;;;;;8.57;4.30;;;;;;;;;;10165620;28;20137;-67
2021/06/03 18:09:08;;;;;;;6.57;3.95;;;;;;;;;;10157395;28;20082;-68
2021/06/03 18:14:04;;;;;;;7.50;5.25;;;;;;;;;;10171870;28;20138;-69
2021/06/03 18:19:00;;;;;;;7.53;4.57;;;;;;;;;;10168188;28;20069;-68
2021/06/03 18:23:57;;;;;;;5.65;3.85;;;;;;;;;;10153787;28;20066;-67
2021/06/03 18:28:53;;;;;;;8.30;3.60;;;;;;;;;;10159028;28;20050;-68
2021/06/03 18:33:49;;;;;;;7.82;3.72;;;;;;;;;;10166077;28;20046;-68
2021/06/03 18:38:46;;;;;;;8.25;4.90;;;;;;;;;;10149970;28;20129;-67
2021/06/03 18:43:42;;;;;;;7.70;5.47;;;;;;;;;;10156445;28;20133;-67
2021/06/03 18:48:42;;;;;;;5.75;3.85;;;;;;;;;;10165517;28;20137;-68
2021/06/03 18:53:39;;;;;;;6.05;4.03;;;;;;;;;;10172737;28;20132;-67
2021/06/03 18:58:35;;;;;;;6.75;3.85;;;;;;;;;;10171026;28;20448;-68
2021/06/03 19:03:32;;;;;;;8.52;4.93;;;;;;;;;;10161687;28;20088;-67
2021/06/03 19:08:28;;;;;;;7.47;4.45;;;;;;;;;;10149928;28;20084;-69
2021/06/03 19:13:25;;;;;;;7.45;4.55;;;;;;;;;;10168420;28;20108;-68
2021/06/03 19:18:21;;;;;;;6.20;4.13;;;;;;;;;;10153488;28;20129;-67
2021/06/03 19:23:18;;;;;;;6.05;3.10;;;;;;;;;;10152373;28;20089;-67
2021/06/03 19:28:16;;;;;;;5.45;3.58;;;;;;;;;;10150928;28;20105;-67
2021/06/03 19:33:21;;;;;;;5.47;3.30;;;;;;;;;;10147709;28;20054;-67
2021/06/03 19:38:18;;;;;;;5.82;3.72;;;;;;;;;;10156853;28;20117;-67
2021/06/03 19:43:15;;;;;;;5.28;3.78;;;;;;;;;;10147526;28;20121;-67
2021/06/03 19:48:11;;;;;;;6.40;3.53;;;;;;;;;;10159098;28;20042;-67
2021/06/03 19:53:08;;;;;;;5.95;3.55;;;;;;;;;;10150407;28;20066;-67
2021/06/03 19:58:05;;;;;;;13.85;4.07;;;;;;;;;;10166245;28;20077;-68
2021/06/03 20:03:02;;;;;;;5.65;3.15;;;;;;;;;;10156312;28;20421;-69
2021/06/03 20:07:58;;;;;;;5.07;3.50;;;;;;;;;;10128119;28;20058;-68
2021/06/03 20:12:55;;;;;;;6.97;3.78;;;;;;;;;;10154981;28;20543;-68
2021/06/03 20:17:51;;;;;;;4.95;3.55;;;;;;;;;;10126877;28;20506;-69
2021/06/03 20:22:49;;;;;;;6.32;3.90;;;;;;;;;;10146102;28;20137;-70
2021/06/03 20:27:47;;;;;;;7.00;4.28;;;;;;;;;;10160528;28;20042;-74
2021/06/03 20:32:43;;;;;;;6.32;4.28;;;;;;;;;;10149311;28;20049;-73
2021/06/03 20:37:41;;;;;;;6.10;3.80;;;;;;;;;;10149707;28;20070;-73
2021/06/03 20:42:38;;;;;;;7.20;4.78;;;;;;;;;;10166904;28;20129;-72
2021/06/03 20:47:35;;;;;;;6.63;4.85;;;;;;;;;;10153084;28;20137;-72
2021/06/03 20:52:32;;;;;;;8.70;5.03;;;;;;;;;;10134147;28;20073;-73
2021/06/03 20:57:28;;;;;;;6.35;4.78;;;;;;;;;;10117568;28;20050;-72
2021/06/03 21:02:29;;;;;;;6.43;4.65;;;;;;;;;;10152908;28;20052;-75
2021/06/03 21:07:25;;;;;;;6.60;4.53;;;;;;;;;;10152440;28;20038;-72
2021/06/03 21:12:22;;;;;;;8.00;4.93;;;;;;;;;;10156997;28;20050;-72
2021/06/03 21:17:18;;;;;;;6.57;4.97;;;;;;;;;;10127515;28;20849;-74
2021/06/03 21:22:14;;;;;;;8.02;5.30;;;;;;;;;;10133926;28;20070;-74
2021/06/03 21:27:11;;;;;;;7.30;5.30;;;;;;;;;;10132423;28;20046;-72
2021/06/03 21:32:08;;;;;;;7.28;5.10;;;;;;;;;;10133065;28;20141;-75
2021/06/03 21:37:05;;;;;;;8.02;5.55;;;;;;;;;;10136274;28;20141;-74
2021/06/03 21:42:01;;;;;;;8.57;6.45;;;;;;;;;;10144867;28;20157;-73
2021/06/03 21:46:57;;;;;;;7.00;5.72;;;;;;;;;;10134031;28;20070;-72
2021/06/03 21:51:54;;;;;;;8.27;5.60;;;;;;;;;;10149605;28;20054;-77
2021/06/03 21:56:50;;;;;;;7.80;6.45;;;;;;;;;;10155920;28;20483;-76
2021/06/03 22:01:47;;;;;;;9.10;5.63;;;;;;;;;;10161809;28;20097;-76
2021/06/03 22:06:44;;;;;;;7.40;5.30;;;;;;;;;;10158123;28;20132;-74
2021/06/03 22:11:41;;;;;;;9.70;6.75;;;;;;;;;;10159347;28;20133;-76
2021/06/03 22:16:37;;;;;;;8.10;5.95;;;;;;;;;;10155901;28;20141;-77
2021/06/03 22:21:34;;;;;;;9.18;6.43;;;;;;;;;;10154198;28;20046;-75
2021/06/03 22:26:31;;;;;;;8.75;7.05;;;;;;;;;;10156810;28;20073;-74
2021/06/03 22:31:27;;;;;;;8.63;6.88;;;;;;;;;;10149477;28;20125;-72
2021/06/03 22:36:24;;;;;;;8.20;6.70;;;;;;;;;;10150594;28;20046;-73
2021/06/03 22:41:21;;;;;;;8.60;7.13;;;;;;;;;;10134454;28;20115;-72
2021/06/03 22:46:18;;;;;;;9.55;6.85;;;;;;;;;;10156271;28;20066;-72
2021/06/03 22:51:18;;;;;;;10.25;7.30;;;;;;;;;;10165674;28;20080;-74
2021/06/03 22:56:16;;;;;;;10.70;6.93;;;;;;;;;;10147578;28;20456;-70
2021/06/03 23:01:14;;;;;;;9.95;8.02;;;;;;;;;;10155190;28;20054;-71
2021/06/03 23:06:13;;;;;;;11.52;7.32;;;;;;;;;;10173759;28;20070;-70
2021/06/03 23:11:12;;;;;;;10.13;7.25;;;;;;;;;;10150052;28;20046;-73
2021/06/03 23:16:09;;;;;;;10.48;8.25;;;;;;;;;;10167502;28;20046;-72
2021/06/03 23:21:08;;;;;;;9.85;8.60;;;;;;;;;;10144630;28;20444;-70
2021/06/03 23:26:05;;;;;;;11.98;8.77;;;;;;;;;;10147971;28;20417;-72
2021/06/03 23:31:02;;;;;;;9.95;8.60;;;;;;;;;;10149296;28;20533;-72
2021/06/03 23:35:58;;;;;;;12.38;9.43;;;;;;;;;;10150995;28;20641;-73
2021/06/03 23:40:55;;;;;;;9.00;7.68;;;;;;;;;;10166062;28;20473;-72
2021/06/03 23:45:51;;;;;;;9.05;8.15;;;;;;;;;;10150740;28;20054;-72
2021/06/03 23:50:47;;;;;;;9.88;8.45;;;;;;;;;;10165243;28;20133;-75
2021/06/03 23:55:44;;;;;;;10.68;9.10;;;;;;;;;;10164826;28;20489;-72
